Time;durP1;ratioP1;P1;durP2;ratioP2;P2;SDS_P1;SDS_P2;PMS_P1;PMS_P2;Temp;Humidity;BMP_temperature;BMP_pressure;BME280_temperature;BME280_humidity;BME280_pressure;Samples;Min_cycle;Max_cycle;Signal;HPM_P1;HPM_P2
2021/12/10 00:02:58;;;;;;;97.97;43.83;;;;;;;-2.22;100.00;98474.75;5053310;28;20053;-74
2021/12/10 00:05:56;;;;;;;109.85;48.35;;;;;;;-2.22;100.00;98473.91;5053175;28;20041;-74
2021/12/10 00:08:44;;;;;;;101.90;44.40;;;;;;;-2.17;100.00;98464.53;5053881;28;20112;-74
2021/12/10 00:11:35;;;;;;;81.30;40.08;;;;;;;-2.18;100.00;98455.97;5053847;28;20377;-74
2021/12/10 00:14:25;;;;;;;80.00;35.72;;;;;;;-2.09;100.00;98455.13;5053860;28;20053;-74
2021/12/10 00:17:12;;;;;;;76.03;35.53;;;;;;;-2.08;100.00;98448.28;5053116;28;20044;-74
2021/12/10 00:19:58;;;;;;;69.43;32.95;;;;;;;-2.18;100.00;98434.56;5053732;28;20052;-74
2021/12/10 00:22:51;;;;;;;72.43;31.77;;;;;;;-2.17;100.00;98426.03;5053578;28;20414;-74
2021/12/10 00:25:44;;;;;;;73.97;34.05;;;;;;;-2.11;100.00;98420.94;5053010;28;20335;-74
2021/12/10 00:28:33;;;;;;;64.00;31.38;;;;;;;-2.07;100.00;98412.41;5038988;28;20045;-74
2021/12/10 00:31:43;;;;;;;65.93;30.45;;;;;;;-2.15;100.00;98421.75;5052962;28;20037;-74
2021/12/10 00:34:35;;;;;;;67.43;31.27;;;;;;;-2.23;100.00;98429.44;5038760;28;20395;-74
2021/12/10 00:37:22;;;;;;;87.80;38.57;;;;;;;-2.24;100.00;98429.41;5053470;28;20041;-74
2021/12/10 00:40:09;;;;;;;93.47;43.25;;;;;;;-2.28;100.00;98427.69;5053425;28;20105;-74
2021/12/10 00:42:55;;;;;;;79.18;37.38;;;;;;;-2.32;100.00;98420.84;5053583;28;20174;-74
2021/12/10 00:45:40;;;;;;;65.00;31.33;;;;;;;-2.45;100.00;98420.78;5052637;28;20374;-74
2021/12/10 00:48:24;;;;;;;74.78;33.90;;;;;;;-2.47;100.00;98417.38;5052798;28;20049;-74
2021/12/10 00:51:10;;;;;;;68.50;32.58;;;;;;;-2.53;100.00;98426.75;5052583;28;20045;-74
2021/12/10 00:53:55;;;;;;;70.18;31.95;;;;;;;-2.63;100.00;98410.44;5053376;28;20037;-74
2021/12/10 00:56:41;;;;;;;66.93;30.33;;;;;;;-2.62;100.00;98422.41;5053113;28;20037;-74
2021/12/10 00:59:25;;;;;;;67.20;31.83;;;;;;;-2.68;100.00;98404.44;5053329;28;20232;-74
2021/12/10 01:02:13;;;;;;;65.22;29.40;;;;;;;-2.66;100.00;98407.88;5053362;28;20048;-74
2021/12/10 01:04:59;;;;;;;74.50;32.35;;;;;;;-2.72;100.00;98416.38;5053531;28;20041;-78
2021/12/10 01:07:45;;;;;;;76.28;34.08;;;;;;;-2.72;100.00;98421.50;5053116;28;20041;-74
2021/12/10 01:10:43;;;;;;;85.72;39.70;;;;;;;-2.71;100.00;98406.97;5052129;28;20064;-77
2021/12/10 01:13:32;;;;;;;84.68;35.22;;;;;;;-2.67;100.00;98416.38;5052345;28;20097;-78
2021/12/10 01:25:33;;;;;;;98.47;44.78;;;;;;;-2.58;100.00;98391.66;5051462;28;20040;-78
2021/12/10 01:28:17;;;;;;;86.90;38.53;;;;;;;-2.56;100.00;98409.63;5052668;28;20053;-77
2021/12/10 01:31:03;;;;;;;81.25;34.15;;;;;;;-2.56;100.00;98407.06;5052935;28;20048;-78
2021/12/10 01:33:48;;;;;;;71.38;33.03;;;;;;;-2.54;100.00;98381.41;5052842;28;20049;-78
2021/12/10 01:36:34;;;;;;;73.55;34.55;;;;;;;-2.56;100.00;98368.59;5052794;28;20138;-77
2021/12/10 01:39:24;;;;;;;68.95;31.52;;;;;;;-2.59;100.00;98368.59;5051976;28;20045;-77
2021/12/10 01:42:18;;;;;;;73.75;29.95;;;;;;;-2.66;100.00;98372.84;5051848;28;20045;-77
2021/12/10 01:45:17;;;;;;;79.65;36.25;;;;;;;-2.69;100.00;98375.38;5052610;28;20112;-77
2021/12/10 01:48:07;;;;;;;76.90;33.55;;;;;;;-2.61;100.00;98375.41;5051874;28;20343;-78
2021/12/10 01:50:53;;;;;;;67.78;30.77;;;;;;;-2.65;100.00;98379.66;5051792;28;20499;-77
2021/12/10 01:53:40;;;;;;;71.72;33.67;;;;;;;-2.62;100.00;98366.88;5052462;28;20076;-77
2021/12/10 01:56:28;;;;;;;76.28;34.63;;;;;;;-2.73;100.00;98362.53;5051943;28;20041;-78
2021/12/10 01:59:17;;;;;;;71.22;34.35;;;;;;;-2.63;100.00;98351.50;5052593;28;20045;-77
2021/12/10 02:02:08;;;;;;;75.00;33.88;;;;;;;-2.69;100.00;98349.75;5051795;28;20116;-77
2021/12/10 02:04:53;;;;;;;74.75;32.20;;;;;;;-2.64;100.00;98349.75;5052311;28;20037;-77
2021/12/10 02:07:37;;;;;;;81.55;36.50;;;;;;;-2.58;100.00;98350.63;5052458;28;20048;-77
2021/12/10 02:10:22;;;;;;;75.57;34.63;;;;;;;-2.52;100.00;98342.13;5051424;28;20374;-77
2021/12/10 02:13:07;;;;;;;75.28;34.88;;;;;;;-2.49;100.00;98336.16;5037618;28;20045;-77
2021/12/10 02:15:51;;;;;;;74.50;35.47;;;;;;;-2.46;100.00;98341.28;5052327;28;20048;-77
2021/12/10 02:18:36;;;;;;;67.65;32.75;;;;;;;-2.48;100.00;98333.59;5051608;28;20073;-77
2021/12/10 02:21:23;;;;;;;66.00;31.67;;;;;;;-2.40;100.00;98331.91;5052133;28;20059;-78
2021/12/10 02:24:09;;;;;;;59.22;27.88;;;;;;;-2.39;100.00;98343.03;5051471;28;20068;-77
2021/12/10 02:26:58;;;;;;;54.72;27.08;;;;;;;-2.41;100.00;98353.25;5051406;28;20105;-78
2021/12/10 02:29:42;;;;;;;66.05;27.33;;;;;;;-2.45;100.00;98337.88;5052025;28;20045;-78
2021/12/10 02:32:27;;;;;;;61.80;30.63;;;;;;;-2.42;100.00;98343.00;5051342;28;20499;-78
2021/12/10 02:35:14;;;;;;;68.30;29.70;;;;;;;-2.33;100.00;98340.47;5052155;28;20414;-78
2021/12/10 02:37:59;;;;;;;56.72;27.73;;;;;;;-2.33;100.00;98340.47;5053881;28;20362;-77
2021/12/10 02:40:45;;;;;;;56.63;28.92;;;;;;;-2.33;100.00;98327.66;5055137;28;20041;-77
2021/12/10 02:43:29;;;;;;;70.03;32.15;;;;;;;-2.33;100.00;98324.25;5055370;28;20057;-78
2021/12/10 02:46:14;;;;;;;71.85;32.90;;;;;;;-2.22;100.00;98327.69;5054405;28;20473;-78
2021/12/10 02:48:59;;;;;;;72.45;35.33;;;;;;;-2.25;100.00;98327.66;5055097;28;20041;-78
2021/12/10 02:51:44;;;;;;;77.65;32.95;;;;;;;-2.25;100.00;98320.81;5054437;28;20395;-77
2021/12/10 02:54:35;;;;;;;66.43;33.15;;;;;;;-2.34;100.00;98313.09;5055171;28;20470;-77
2021/12/10 02:57:21;;;;;;;65.30;30.75;;;;;;;-2.29;100.00;98325.94;5055101;28;20041;-78
2021/12/10 03:00:09;;;;;;;66.78;29.63;;;;;;;-2.26;100.00;98338.78;5040230;28;20044;-78
2021/12/10 03:02:53;;;;;;;63.17;30.38;;;;;;;-2.24;100.00;98330.25;5054269;28;20082;-78
2021/12/10 03:05:37;;;;;;;64.93;30.38;;;;;;;-2.24;100.00;98325.13;5054898;28;20041;-78
2021/12/10 03:08:22;;;;;;;72.53;34.38;;;;;;;-2.37;100.00;98334.50;5054303;28;20045;-78
2021/12/10 03:11:07;;;;;;;63.25;30.80;;;;;;;-2.36;100.00;98337.91;5054115;28;20366;-78
2021/12/10 03:13:52;;;;;;;71.85;33.00;;;;;;;-2.36;100.00;98343.88;5054863;28;20097;-78
2021/12/10 03:16:39;;;;;;;74.95;36.15;;;;;;;-2.38;100.00;98335.31;5054771;28;20044;-78
2021/12/10 03:19:23;;;;;;;84.75;38.85;;;;;;;-2.36;100.00;98341.31;5054117;28;20041;-78
2021/12/10 03:22:07;;;;;;;79.60;36.10;;;;;;;-2.38;100.00;98329.34;5054050;28;20048;-78
2021/12/10 03:24:53;;;;;;;82.20;36.22;;;;;;;-2.40;100.00;98333.63;5054609;28;20396;-78
2021/12/10 03:27:37;;;;;;;77.50;32.97;;;;;;;-2.42;100.00;98331.03;5053940;28;20350;-78
2021/12/10 03:30:34;;;;;;;86.68;39.75;;;;;;;-2.40;100.00;98329.34;5053837;28;20037;-77
2021/12/10 03:33:18;;;;;;;81.32;37.35;;;;;;;-2.47;100.00;98332.75;5054472;28;20105;-78
2021/12/10 03:36:03;;;;;;;81.38;36.60;;;;;;;-2.40;100.00;98329.34;5054417;28;20124;-77
2021/12/10 03:38:50;;;;;;;83.03;36.72;;;;;;;-2.39;100.00;98325.94;5053701;28;20048;-78
2021/12/10 03:41:34;;;;;;;82.60;35.80;;;;;;;-2.42;100.00;98320.78;5039594;28;20041;-77
2021/12/10 03:44:18;;;;;;;75.45;35.72;;;;;;;-2.43;100.00;98328.50;5053714;28;20180;-77
2021/12/10 03:47:08;;;;;;;70.20;33.88;;;;;;;-2.43;100.00;98320.78;5053314;28;20045;-77
2021/12/10 03:49:53;;;;;;;79.60;35.35;;;;;;;-2.37;100.00;98306.28;5054248;28;20090;-78
2021/12/10 03:52:38;;;;;;;71.28;33.35;;;;;;;-2.42;100.00;98305.41;5039499;28;20071;-77
2021/12/10 03:55:23;;;;;;;69.38;33.40;;;;;;;-2.42;100.00;98284.03;5053525;28;20450;-77
2021/12/10 03:58:08;;;;;;;60.35;30.70;;;;;;;-2.45;100.00;98286.59;5054102;28;20041;-78
2021/12/10 04:00:54;;;;;;;69.75;32.05;;;;;;;-2.35;100.00;98278.91;5053380;28;20381;-77
2021/12/10 04:03:41;;;;;;;71.40;31.55;;;;;;;-2.33;100.00;98291.75;5053929;28;20354;-77
2021/12/10 04:06:26;;;;;;;66.18;32.45;;;;;;;-2.31;100.00;98284.91;5054118;28;20049;-77
2021/12/10 04:09:11;;;;;;;68.10;34.75;;;;;;;-2.32;100.00;98282.34;5053954;28;20044;-78
2021/12/10 04:11:56;;;;;;;65.13;31.10;;;;;;;-2.32;100.00;98282.34;5054027;28;20047;-77
2021/12/10 04:14:42;;;;;;;69.25;33.30;;;;;;;-2.36;100.00;98278.91;5053220;28;20041;-77
2021/12/10 04:17:27;;;;;;;72.65;34.60;;;;;;;-2.38;100.00;98257.53;5053298;28;20063;-78
2021/12/10 04:20:12;;;;;;;68.20;31.23;;;;;;;-2.35;100.00;98262.66;5053371;28;20116;-78
2021/12/10 04:23:02;;;;;;;76.78;32.92;;;;;;;-2.35;100.00;98272.94;5053279;28;20045;-77
2021/12/10 04:25:47;;;;;;;82.85;36.45;;;;;;;-2.28;100.00;98266.09;5053613;28;20045;-77
2021/12/10 04:28:32;;;;;;;80.78;37.38;;;;;;;-2.28;100.00;98272.09;5053690;28;20041;-78
2021/12/10 04:31:17;;;;;;;91.95;39.97;;;;;;;-2.32;100.00;98269.53;5053782;28;20116;-78
2021/12/10 04:34:02;;;;;;;94.13;41.97;;;;;;;-2.34;100.00;98266.94;5052973;28;20045;-78
2021/12/10 04:36:46;;;;;;;92.38;42.70;;;;;;;-2.32;100.00;98261.81;5052923;28;20041;-77
2021/12/10 04:39:30;;;;;;;104.65;45.75;;;;;;;-2.23;100.00;98270.38;5053749;28;20418;-78
2021/12/10 04:42:21;;;;;;;124.78;52.80;;;;;;;-2.26;100.00;98269.53;5053590;28;20357;-78
2021/12/10 04:45:06;;;;;;;200.27;81.40;;;;;;;-2.22;100.00;98271.25;5053566;28;20041;-76
2021/12/10 04:47:53;;;;;;;199.88;92.78;;;;;;;-2.29;100.00;98261.84;5061864;28;20489;-82
2021/12/10 04:50:39;;;;;;;176.20;83.80;;;;;;;-2.30;100.00;98243.03;5050374;28;20057;-82
2021/12/10 04:53:24;;;;;;;157.57;73.28;;;;;;;-2.31;100.00;98259.25;5065146;28;20045;-82
2021/12/10 04:56:11;;;;;;;183.25;77.88;;;;;;;-2.51;100.00;98232.72;5065455;28;20045;-82
2021/12/10 04:59:00;;;;;;;132.02;59.45;;;;;;;-2.65;100.00;98214.75;5050299;28;20096;-82
2021/12/10 05:01:46;;;;;;;133.82;59.97;;;;;;;-2.24;100.00;98278.06;5063771;28;20053;-82
2021/12/10 05:04:31;;;;;;;109.85;50.10;;;;;;;-2.86;100.00;98206.16;5065290;28;20066;-82
2021/12/10 05:07:19;;;;;;;132.45;51.05;;;;;;;-2.51;100.00;98236.13;5065280;28;20041;-82
2021/12/10 05:10:16;;;;;;;150.35;61.72;;;;;;;-2.44;100.00;98247.25;5064918;28;20064;-82
2021/12/10 05:13:09;;;;;;;128.43;53.60;;;;;;;-2.28;100.00;98281.50;5064771;28;20041;-82
2021/12/10 05:16:08;;;;;;;138.30;62.10;;;;;;;-2.53;100.00;98245.56;5067346;28;20096;-82
2021/12/10 05:19:04;;;;;;;134.70;60.67;;;;;;;-2.66;100.00;98193.41;5065124;28;20048;-82
2021/12/10 05:25:10;;;;;;;230.55;97.30;;;;;;;-2.32;100.00;98259.25;5067129;28;20056;-82
2021/12/10 05:27:58;;;;;;;194.93;82.95;;;;;;;-2.55;100.00;98231.00;5067231;28;20066;-82
2021/12/10 05:30:55;;;;;;;162.95;66.57;;;;;;;-2.47;100.00;98222.50;5066684;28;20124;-82
2021/12/10 05:33:46;;;;;;;154.82;64.35;;;;;;;-2.49;100.00;98224.19;5066154;28;20045;-82
2021/12/10 05:36:40;;;;;;;162.65;67.60;;;;;;;-2.64;100.00;98172.88;5066556;28;20132;-82
2021/12/10 05:39:26;;;;;;;221.10;82.25;;;;;;;-2.40;100.00;98220.78;5064812;28;20092;-82
2021/12/10 05:42:12;;;;;;;204.18;79.60;;;;;;;-2.63;100.00;98188.28;5064579;28;20043;-82
2021/12/10 05:44:58;;;;;;;192.43;73.38;;;;;;;-2.36;100.00;98200.25;5065229;28;20037;-82
2021/12/10 05:47:55;;;;;;;175.50;71.60;;;;;;;-2.55;100.00;98192.56;5065067;28;20049;-82
2021/12/10 05:50:45;;;;;;;191.63;77.57;;;;;;;-2.62;100.00;98212.19;5064499;28;20049;-82
2021/12/10 05:53:34;;;;;;;202.57;80.82;;;;;;;-2.16;100.00;98276.38;5066117;28;20045;-82
2021/12/10 05:56:22;;;;;;;212.85;83.47;;;;;;;-2.55;100.00;98195.97;5052007;28;20057;-82
2021/12/10 05:59:11;;;;;;;201.32;83.22;;;;;;;-2.27;100.00;98245.59;5067916;28;20131;-82
2021/12/10 06:02:00;;;;;;;179.02;80.85;;;;;;;-2.41;100.00;98231.88;5068524;28;20049;-82
2021/12/10 06:04:51;;;;;;;157.45;70.43;;;;;;;-2.49;100.00;98205.38;5069398;28;20129;-82
2021/12/10 06:07:39;;;;;;;157.63;71.05;;;;;;;-2.47;100.00;98216.47;5066905;28;20049;-82
2021/12/10 06:10:28;;;;;;;149.13;66.40;;;;;;;-2.55;100.00;98216.47;5067616;28;20057;-82
2021/12/10 06:13:17;;;;;;;137.30;59.03;;;;;;;-2.46;100.00;98234.44;5067180;28;20457;-82
2021/12/10 06:16:07;;;;;;;124.30;56.33;;;;;;;-2.44;100.00;98231.88;5068155;28;20056;-82
2021/12/10 06:18:56;;;;;;;121.10;54.55;;;;;;;-2.55;100.00;98211.34;5067161;28;20049;-82
2021/12/10 06:21:44;;;;;;;121.55;52.55;;;;;;;-2.29;100.00;98236.19;5066994;28;20045;-82
2021/12/10 06:24:33;;;;;;;128.40;56.08;;;;;;;-2.42;100.00;98219.91;5053926;28;20045;-82
2021/12/10 06:27:18;;;;;;;97.47;45.28;;;;;;;-2.53;100.00;98196.84;5066061;28;20048;-82
2021/12/10 06:30:07;;;;;;;112.43;48.83;;;;;;;-2.42;100.00;98214.78;5072823;28;20049;-82
2021/12/10 06:33:03;;;;;;;112.00;49.55;;;;;;;-2.46;100.00;98185.72;5067663;28;20435;-82
2021/12/10 06:36:00;;;;;;;126.03;53.00;;;;;;;-2.59;100.00;98202.81;5065955;28;20062;-82
2021/12/10 06:38:52;;;;;;;122.32;56.50;;;;;;;-2.10;100.00;98268.69;5068809;28;20049;-82
2021/12/10 06:41:37;;;;;;;134.05;55.78;;;;;;;-2.09;100.00;98265.28;5069110;28;20100;-82
2021/12/10 06:44:24;;;;;;;133.43;55.28;;;;;;;-2.33;100.00;98234.47;5068740;28;20041;-82
2021/12/10 06:47:09;;;;;;;127.45;56.45;;;;;;;-2.48;100.00;98199.41;5067093;28;20045;-82
2021/12/10 06:50:07;;;;;;;146.30;61.00;;;;;;;-2.51;100.00;98200.25;5068185;28;20128;-82
2021/12/10 06:52:55;;;;;;;120.72;54.70;;;;;;;-2.16;100.00;98237.91;5067541;28;20056;-82
2021/12/10 06:55:42;;;;;;;147.02;60.15;;;;;;;-2.47;100.00;98191.72;5066982;28;20056;-82
2021/12/10 06:58:31;;;;;;;128.80;50.40;;;;;;;-2.23;100.00;98241.31;5068572;28;20093;-82
2021/12/10 07:01:39;;;;;;;154.32;59.80;;;;;;;-2.04;100.00;98265.28;5066455;28;20041;-82
2021/12/10 07:04:26;;;;;;;165.23;61.75;;;;;;;-2.18;100.00;98237.03;5066207;28;20041;-82
2021/12/10 07:07:14;;;;;;;132.57;52.42;;;;;;;-2.16;100.00;98249.00;5069595;28;20048;-82
2021/12/10 07:10:03;;;;;;;122.53;46.55;;;;;;;-2.22;100.00;98236.19;5066219;28;20450;-82
2021/12/10 07:12:51;;;;;;;144.95;55.08;;;;;;;-2.40;100.00;98198.56;5066844;28;20052;-82
2021/12/10 07:15:44;;;;;;;163.68;60.28;;;;;;;-2.09;100.00;98231.91;5067097;28;20051;-82
2021/12/10 07:18:33;;;;;;;148.52;55.78;;;;;;;-1.82;100.00;98271.25;5070697;28;20052;-82
2021/12/10 07:21:20;;;;;;;120.13;51.08;;;;;;;-1.84;100.00;98248.19;5067566;28;20044;-82
2021/12/10 07:24:11;;;;;;;118.57;51.78;;;;;;;-2.25;100.00;98190.00;5066054;28;20055;-82
2021/12/10 07:26:59;;;;;;;102.70;47.25;;;;;;;-2.07;100.00;98211.41;5047072;28;20049;-82
2021/12/10 07:29:47;;;;;;;99.10;44.80;;;;;;;-1.87;100.00;98253.31;5045485;28;20049;-82
2021/12/10 07:32:36;;;;;;;101.10;42.05;;;;;;;-2.05;100.00;98220.78;5048015;28;20045;-82
2021/12/10 07:35:27;;;;;;;125.70;52.25;;;;;;;-1.95;100.00;98231.91;5046594;28;20049;-82
2021/12/10 07:38:12;;;;;;;119.72;48.65;;;;;;;-2.09;100.00;98234.47;5025283;28;20057;-79
2021/12/10 07:40:58;;;;;;;121.25;49.65;;;;;;;-2.06;100.00;98231.06;5040157;28;20359;-82
2021/12/10 07:43:43;;;;;;;127.68;53.53;;;;;;;-1.94;100.00;98255.03;5042061;28;20051;-82
2021/12/10 07:46:32;;;;;;;120.57;48.38;;;;;;;-2.06;100.00;98216.53;5042488;28;20049;-82
2021/12/10 07:49:23;;;;;;;127.15;51.92;;;;;;;-1.80;100.00;98259.28;5045826;28;20110;-82
2021/12/10 07:52:22;;;;;;;118.82;54.17;;;;;;;-2.23;100.00;98205.41;5044104;28;20098;-82
2021/12/10 07:55:14;;;;;;;116.35;48.65;;;;;;;-2.01;100.00;98249.91;5044821;28;20435;-82
2021/12/10 07:58:01;;;;;;;;;;;;;;;-1.83;100.00;98283.25;5046731;28;20041;-82
2021/12/10 08:00:47;;;;;;;119.85;48.78;;;;;;;-2.13;100.00;98243.03;5046412;28;19959;-82
2021/12/10 08:03:34;;;;;;;113.72;49.20;;;;;;;-2.11;100.00;98238.78;5033564;28;20037;-82
2021/12/10 08:06:25;;;;;;;100.90;44.15;;;;;;;-2.03;100.00;98262.72;5045920;28;20066;-82
2021/12/10 08:09:12;;;;;;;116.75;49.75;;;;;;;-1.94;100.00;98274.69;5045638;28;20048;-82
2021/12/10 08:12:05;;;;;;;97.25;41.97;;;;;;;-2.19;100.00;98266.13;5044738;28;20057;-82
2021/12/10 08:14:55;;;;;;;95.45;41.42;;;;;;;-2.08;100.00;98248.16;5044921;28;20041;-82
2021/12/10 08:17:42;;;;;;;123.90;47.92;;;;;;;-1.92;100.00;98286.69;5044200;28;20063;-82
2021/12/10 08:20:28;;;;;;;110.10;46.13;;;;;;;-2.09;100.00;98261.84;5043011;28;20133;-82
2021/12/10 08:23:14;;;;;;;95.50;43.38;;;;;;;-2.05;100.00;98261.00;5042303;28;20042;-82
2021/12/10 08:26:04;;;;;;;110.25;47.60;;;;;;;-1.76;100.00;98278.97;5043605;28;20057;-82
2021/12/10 08:28:51;;;;;;;133.23;54.65;;;;;;;-1.69;100.00;98288.38;5042962;28;20049;-82
2021/12/10 08:31:37;;;;;;;151.48;61.45;;;;;;;-1.90;100.00;98256.72;5043420;28;20049;-82
2021/12/10 08:34:21;;;;;;;143.80;55.03;;;;;;;-1.83;100.00;98254.16;5042480;28;20038;-82
2021/12/10 08:37:07;;;;;;;232.57;88.13;;;;;;;-1.74;100.00;98274.69;5043696;28;20045;-82
2021/12/10 08:39:52;;;;;;;179.70;73.78;;;;;;;-1.66;100.00;98242.16;5044169;28;20450;-82
2021/12/10 08:42:37;;;;;;;154.40;60.92;;;;;;;-1.74;100.00;98246.47;5042630;28;20146;-79
2021/12/10 08:45:23;;;;;;;167.68;61.05;;;;;;;-1.34;100.00;98292.63;5034148;28;20037;-79
2021/12/10 08:48:08;;;;;;;153.20;54.40;;;;;;;-1.27;100.00;98240.38;5033755;28;20053;-79
2021/12/10 08:50:56;;;;;;;141.75;55.13;;;;;;;-1.43;100.00;98255.84;5033271;28;20041;-79
2021/12/10 08:53:41;;;;;;;125.10;50.10;;;;;;;-1.27;100.00;98255.78;5033365;28;20041;-79
2021/12/10 08:56:26;;;;;;;129.02;50.42;;;;;;;-1.19;100.00;98278.03;5033211;28;20408;-80
2021/12/10 08:59:11;;;;;;;132.95;53.95;;;;;;;-1.12;100.00;98284.03;5033279;28;20114;-80
2021/12/10 09:01:59;;;;;;;152.57;65.22;;;;;;;-1.02;100.00;98279.72;5033268;28;20102;-79
2021/12/10 09:04:45;;;;;;;236.45;104.18;;;;;;;-1.11;100.00;98254.03;5033236;28;20041;-79
2021/12/10 09:07:29;;;;;;;227.45;106.97;;;;;;;-1.13;100.00;98261.75;5033239;28;20050;-79
2021/12/10 09:10:21;;;;;;;182.63;86.97;;;;;;;-1.27;100.00;98248.09;5033077;28;20049;-79
2021/12/10 09:13:14;;;;;;;196.82;83.90;;;;;;;-1.15;100.00;98254.91;5035308;28;20049;-81
2021/12/10 09:16:03;;;;;;;178.90;81.43;;;;;;;-1.07;100.00;98281.44;5034861;28;20447;-81
2021/12/10 09:18:48;;;;;;;162.80;72.93;;;;;;;-1.20;100.00;98242.09;5035373;28;20134;-82
2021/12/10 09:21:34;;;;;;;184.23;83.18;;;;;;;-0.95;100.00;98276.25;5036192;28;20427;-82
2021/12/10 09:24:20;;;;;;;229.75;98.50;;;;;;;-1.25;100.00;98210.41;5036677;28;20060;-82
2021/12/10 09:27:08;;;;;;;161.80;68.97;;;;;;;-0.97;100.00;98231.72;5036813;28;20453;-82
2021/12/10 09:29:54;;;;;;;148.00;62.72;;;;;;;-0.85;100.00;98230.81;5034443;28;20090;-81
2021/12/10 09:32:39;;;;;;;145.23;63.00;;;;;;;-0.73;100.00;98229.03;5036237;28;20061;-82
2021/12/10 09:35:26;;;;;;;190.43;79.63;;;;;;;-0.74;100.00;98235.06;5035461;28;20432;-82
2021/12/10 09:38:11;;;;;;;153.98;67.35;;;;;;;-0.25;100.00;98236.50;5036100;28;20046;-82
2021/12/10 09:41:02;;;;;;;143.45;60.60;;;;;;;-0.21;100.00;98247.63;5033959;28;20053;-81
2021/12/10 09:43:47;;;;;;;154.00;64.25;;;;;;;-0.01;100.00;98262.03;5033839;28;20438;-81
2021/12/10 09:46:31;;;;;;;143.48;60.83;;;;;;;0.34;100.00;98262.63;5036845;28;20041;-81
2021/12/10 09:49:17;;;;;;;147.63;64.82;;;;;;;0.79;100.00;98263.06;5042492;28;20042;-82
2021/12/10 09:52:05;;;;;;;158.30;73.78;;;;;;;0.34;100.00;98242.88;5044489;28;20061;-82
2021/12/10 09:54:50;;;;;;;185.23;81.80;;;;;;;0.56;100.00;98261.56;5044842;28;20079;-82
2021/12/10 09:57:38;;;;;;;205.93;91.90;;;;;;;0.58;100.00;98262.41;5048153;28;20053;-82
2021/12/10 10:00:37;;;;;;;214.00;100.85;;;;;;;-0.21;100.00;98193.56;5049914;28;20114;-82
2021/12/10 10:03:31;;;;;;;172.20;83.03;;;;;;;0.31;100.00;98268.66;5040087;28;20354;-82
2021/12/10 10:06:19;;;;;;;174.00;78.82;;;;;;;0.36;100.00;98260.91;5039711;28;20046;-81
2021/12/10 10:09:06;;;;;;;134.30;64.45;;;;;;;0.52;100.00;98251.28;5037508;28;20170;-81
2021/12/10 10:12:05;;;;;;;124.88;58.53;;;;;;;0.69;100.00;98233.97;5038541;28;20041;-81
2021/12/10 10:14:51;;;;;;;112.10;50.85;;;;;;;1.64;100.00;98251.69;5037725;28;20115;-81
2021/12/10 10:17:36;;;;;;;116.75;52.22;;;;;;;1.49;100.00;98259.66;5038757;28;20098;-81
2021/12/10 10:20:21;;;;;;;106.60;49.58;;;;;;;1.35;100.00;98233.19;5039914;28;20095;-81
2021/12/10 10:23:07;;;;;;;110.63;51.00;;;;;;;1.07;100.00;98249.03;5038248;28;20462;-81
2021/12/10 10:25:55;;;;;;;108.78;48.33;;;;;;;1.24;100.00;98246.22;5038551;28;20049;-81
2021/12/10 10:28:40;;;;;;;100.18;50.45;;;;;;;1.38;100.00;98241.72;5038705;28;20078;-81
2021/12/10 10:31:26;;;;;;;102.28;49.08;;;;;;;1.06;100.00;98218.06;5041063;28;20080;-81
2021/12/10 10:34:13;;;;;;;100.90;48.45;;;;;;;0.86;100.00;98208.00;5047569;28;20431;-80
2021/12/10 10:36:57;;;;;;;105.20;49.03;;;;;;;1.39;100.00;98238.28;5041216;28;20038;-80
2021/12/10 10:39:43;;;;;;;106.10;47.92;;;;;;;1.05;100.00;98204.34;5037992;28;20058;-78
2021/12/10 10:42:28;;;;;;;109.53;51.15;;;;;;;1.07;100.00;98202.59;5050043;27;20079;-77
2021/12/10 10:45:20;;;;;;;127.28;64.22;;;;;;;1.14;100.00;98211.09;5142631;27;20437;-81
2021/12/10 10:48:06;;;;;;;123.10;61.20;;;;;;;1.24;100.00;98219.59;5141259;27;20050;-81
2021/12/10 10:51:01;;;;;;;118.57;53.65;;;;;;;1.16;100.00;98199.03;5125749;27;20136;-79
2021/12/10 10:53:49;;;;;;;119.53;55.13;;;;;;;1.17;100.00;98211.06;5138632;27;20039;-79
2021/12/10 10:56:45;;;;;;;112.05;53.17;;;;;;;1.12;100.00;98211.13;5139950;27;20501;-81
2021/12/10 10:59:29;;;;;;;124.28;56.03;;;;;;;1.31;100.00;98213.47;5146617;27;20043;-80
2021/12/10 11:02:15;;;;;;;119.57;58.63;;;;;;;1.19;100.00;98187.81;5148749;27;20448;-81
2021/12/10 11:05:10;;;;;;;116.88;56.28;;;;;;;1.28;100.00;98209.19;5146086;27;20052;-81
2021/12/10 11:08:03;;;;;;;120.15;61.15;;;;;;;1.10;100.00;98175.91;5146462;27;20051;-81
2021/12/10 11:11:22;;;;;;;124.15;59.88;;;;;;;1.49;100.00;98197.72;5155032;27;20027;-82
2021/12/10 11:14:18;;;;;;;123.53;52.25;;;;;;;1.07;100.00;98170.78;5138432;27;20043;-80
2021/12/10 11:17:08;;;;;;;127.72;58.30;;;;;;;1.17;100.00;98186.13;5138365;27;20070;-80
2021/12/10 11:19:59;;;;;;;120.07;55.88;;;;;;;1.31;100.00;98177.34;5140894;27;20027;-80
2021/12/10 11:22:52;;;;;;;127.72;57.10;;;;;;;1.33;100.00;98202.25;5137401;27;20429;-80
2021/12/10 11:25:41;;;;;;;153.10;67.50;;;;;;;1.28;100.00;98173.06;5138647;27;20485;-80
2021/12/10 11:28:30;;;;;;;147.98;68.60;;;;;;;1.30;100.00;98202.31;5138799;27;20035;-80
2021/12/10 11:31:18;;;;;;;150.35;73.47;;;;;;;1.35;100.00;98207.38;5139853;27;20050;-80
2021/12/10 11:34:02;;;;;;;197.82;94.95;;;;;;;1.29;100.00;98184.25;5139768;27;20043;-80
2021/12/10 11:36:50;;;;;;;182.25;89.03;;;;;;;1.29;100.00;98182.50;5143923;27;20428;-79
2021/12/10 11:39:52;;;;;;;170.85;86.05;;;;;;;1.20;100.00;98205.00;5143434;27;20039;-80
2021/12/10 11:42:47;;;;;;;129.38;65.53;;;;;;;1.40;100.00;98201.28;5139513;27;20054;-80
2021/12/10 11:45:43;;;;;;;100.82;49.58;;;;;;;1.04;100.00;98173.38;5139312;27;20039;-79
2021/12/10 11:48:27;;;;;;;103.07;51.58;;;;;;;0.98;100.00;98194.13;5139114;27;20043;-79
2021/12/10 11:51:33;;;;;;;97.05;49.50;;;;;;;1.10;100.00;98166.44;5139382;27;20035;-79
2021/12/10 11:54:20;;;;;;;92.22;44.45;;;;;;;1.31;100.00;98187.66;5138879;27;20047;-79
2021/12/10 11:57:13;;;;;;;108.63;46.40;;;;;;;1.42;100.00;98196.09;5139070;27;20043;-79
2021/12/10 12:00:10;;;;;;;99.80;45.35;;;;;;;1.13;100.00;98193.91;5138931;27;20477;-79
2021/12/10 12:03:05;;;;;;;126.13;49.78;;;;;;;1.13;100.00;98145.75;5139119;27;20043;-79
2021/12/10 12:05:51;;;;;;;177.38;69.15;;;;;;;1.11;100.00;98154.41;5139682;27;20105;-79
2021/12/10 12:08:39;;;;;;;130.15;55.30;;;;;;;1.00;100.00;98159.69;5137763;27;20047;-79
2021/12/10 12:11:23;;;;;;;132.02;48.42;;;;;;;1.03;100.00;98203.50;5138479;27;20082;-79
2021/12/10 12:14:25;;;;;;;114.70;46.45;;;;;;;1.10;100.00;98197.38;5140583;27;20043;-79
2021/12/10 12:17:31;;;;;;;80.78;34.53;;;;;;;1.07;100.00;98194.88;5138771;27;20490;-79
2021/12/10 12:20:37;;;;;;;89.18;38.17;;;;;;;0.94;100.00;98198.44;5137697;27;20035;-79
2021/12/10 12:26:31;;;;;;;94.80;45.05;;;;;;;0.56;100.00;98192.00;5138316;27;20112;-78
2021/12/10 12:29:17;;;;;;;90.47;42.75;;;;;;;0.43;100.00;98193.84;5137317;27;20040;-79
2021/12/10 12:32:20;;;;;;;88.07;40.15;;;;;;;0.55;100.00;98218.63;5138632;27;20031;-78
2021/12/10 12:35:24;;;;;;;89.20;38.78;;;;;;;0.12;100.00;98182.13;5138368;27;20050;-78
2021/12/10 12:38:20;;;;;;;80.43;37.60;;;;;;;0.14;100.00;98183.84;5142768;27;20047;-79
2021/12/10 12:41:22;;;;;;;82.40;37.20;;;;;;;0.11;100.00;98188.16;5140164;27;20036;-79
2021/12/10 12:44:40;;;;;;;71.22;32.92;;;;;;;0.31;100.00;98218.88;5138503;27;20039;-78
2021/12/10 12:47:29;;;;;;;82.22;38.47;;;;;;;0.15;100.00;98223.31;5137237;27;20081;-79
2021/12/10 12:50:18;;;;;;;161.60;67.47;;;;;;;0.17;100.00;98224.16;5137561;27;20352;-79
2021/12/10 12:53:17;;;;;;;103.95;46.08;;;;;;;-0.04;100.00;98223.44;5137546;27;20039;-78
2021/12/10 12:56:14;;;;;;;88.18;41.85;;;;;;;-0.17;100.00;98223.56;5136863;27;20053;-79
2021/12/10 12:59:06;;;;;;;97.03;45.78;;;;;;;-0.33;100.00;98181.63;5137352;27;20042;-78
2021/12/10 13:01:57;;;;;;;87.65;42.65;;;;;;;-0.29;100.00;98224.50;5137353;27;20067;-78